YPLM

Learmonth Airport

Exmouth, Australia
TAF AMD YPLM 241702Z 2418/2518 22010KT CAVOK FM250000 17014KT CAVOK FM250900 24016KT CAVOK FM251400 20012KT CAVOK
Issued Valid From Valid To
Sep-24 @ 17:02 UTC
(2 hours ago)
Sep-24 @ 18:00 UTC
(an hour ago)
Sep-25 @ 18:00 UTC
(in 23 hours)
Sep-24 @ 18:00 to Sep-25 @ 00:00
TAF AMD YPLM 241702Z 2418/2518 22010KT CAVOK
Wind Visibility Clouds Conditions
220° at 10 knots 10,000+ meters
  • No significant clouds
From Sep-25 @ 00:00 to Sep-25 @ 09:00
FM250000 17014KT CAVOK
Wind Visibility Clouds Conditions
170° at 14 knots 10,000+ meters
  • No significant clouds
From Sep-25 @ 09:00 to Sep-25 @ 14:00
FM250900 24016KT CAVOK
Wind Visibility Clouds Conditions
240° at 16 knots 10,000+ meters
  • No significant clouds
From Sep-25 @ 14:00 to Sep-25 @ 18:00
FM251400 20012KT CAVOK
Wind Visibility Clouds Conditions
200° at 12 knots 10,000+ meters
  • No significant clouds
TAF AMD YPLM 241702Z 2418/2518 22010KT CAVOK FM250000 17014KT CAVOK FM250900 24016KT CAVOK FM251400 20012KT CAVOK
Issued Sep-24 @ 17:02 UTC
(2 hours ago)
Valid From Sep-24 @ 18:00 UTC
(an hour ago)
Valid To Sep-25 @ 18:00 UTC
(in 23 hours)
Sep-24 @ 18:00 - Sep-25 @ 00:00
Wind Visibility
220° at 10 knots 10,000+ meters
Clouds
  • No significant clouds
Conditions
From Sep-25 @ 00:00 - Sep-25 @ 09:00
Wind Visibility
170° at 14 knots 10,000+ meters
Clouds
  • No significant clouds
Conditions
From Sep-25 @ 09:00 - Sep-25 @ 14:00
Wind Visibility
240° at 16 knots 10,000+ meters
Clouds
  • No significant clouds
Conditions
From Sep-25 @ 14:00 - Sep-25 @ 18:00
Wind Visibility
200° at 12 knots 10,000+ meters
Clouds
  • No significant clouds
Conditions